createdAt,value
2022-10-15T00:01:17.464Z,95.10
2022-10-15T00:04:03.095Z,95.10
2022-10-15T00:06:48.554Z,95.20
2022-10-15T00:09:33.833Z,95.30
2022-10-15T00:12:19.552Z,95.40
2022-10-15T00:15:05.572Z,95.50
2022-10-15T00:17:51.141Z,95.60
2022-10-15T00:20:36.880Z,95.70
2022-10-15T00:23:22.140Z,95.70
2022-10-15T00:26:17.501Z,95.80
2022-10-15T00:29:04.435Z,95.80
2022-10-15T00:31:49.589Z,95.80
2022-10-15T00:34:35.016Z,95.80
2022-10-15T00:37:21.372Z,95.90
2022-10-15T00:40:08.470Z,95.80
2022-10-15T00:42:53.928Z,95.90
2022-10-15T00:45:39.392Z,96.20
2022-10-15T00:48:30.244Z,95.90
2022-10-15T00:51:17.947Z,95.90
2022-10-15T00:54:03.593Z,95.90
2022-10-15T00:56:50.436Z,95.90
2022-10-15T00:59:47.343Z,96.00
2022-10-15T01:02:33.640Z,96.00
2022-10-15T01:05:19.639Z,96.00
2022-10-15T01:08:05.233Z,96.00
2022-10-15T01:11:14.860Z,96.00
2022-10-15T01:14:47.734Z,96.00
2022-10-15T01:17:45.052Z,96.00
2022-10-15T01:20:53.063Z,95.90
2022-10-15T01:24:16.156Z,95.90
2022-10-15T01:27:32.585Z,95.90
2022-10-15T01:30:36.132Z,95.80
2022-10-15T01:33:30.959Z,95.70
2022-10-15T01:36:35.711Z,95.60
2022-10-15T01:39:32.760Z,95.60
2022-10-15T01:42:30.530Z,95.80
2022-10-15T01:45:25.268Z,95.90
2022-10-15T01:48:41.993Z,95.90
2022-10-15T01:51:29.948Z,95.90
2022-10-15T01:54:18.107Z,95.90
2022-10-15T01:57:04.445Z,95.90
2022-10-15T01:59:54.209Z,96.00
2022-10-15T02:02:42.486Z,96.10
2022-10-15T02:05:40.862Z,96.20
2022-10-15T02:08:45.641Z,96.30
2022-10-15T02:11:40.244Z,96.20
2022-10-15T02:14:44.397Z,96.30
2022-10-15T02:17:44.039Z,96.30
2022-10-15T02:20:59.604Z,96.30
2022-10-15T02:23:53.446Z,96.30
2022-10-15T02:26:43.714Z,96.30
2022-10-15T02:29:33.885Z,96.40
2022-10-15T02:32:25.096Z,96.50
2022-10-15T02:35:11.783Z,96.60
2022-10-15T02:38:05.119Z,96.70
2022-10-15T02:40:54.086Z,96.80
2022-10-15T02:43:40.943Z,96.80
2022-10-15T02:46:26.625Z,96.90
2022-10-15T02:49:14.455Z,97.00
2022-10-15T02:51:59.736Z,97.00
2022-10-15T02:54:45.522Z,97.00
2022-10-15T02:57:30.955Z,97.00
2022-10-15T03:00:18.425Z,97.10
2022-10-15T03:03:04.710Z,97.20
2022-10-15T03:05:50.494Z,97.20
2022-10-15T03:08:36.278Z,97.30
2022-10-15T03:11:22.891Z,97.40
2022-10-15T03:14:08.950Z,97.40
2022-10-15T03:16:54.475Z,97.40
2022-10-15T03:19:39.951Z,97.50
2022-10-15T03:22:28.100Z,97.60
2022-10-15T03:25:13.868Z,97.60
2022-10-15T03:27:59.439Z,97.70
2022-10-15T03:30:54.069Z,97.70
2022-10-15T03:33:39.812Z,97.80
2022-10-15T03:36:25.436Z,97.90
2022-10-15T03:39:12.942Z,98.10
2022-10-15T03:41:58.835Z,98.20
2022-10-15T03:44:50.972Z,98.10
2022-10-15T03:47:38.309Z,98.20
2022-10-15T03:50:24.098Z,98.20
2022-10-15T03:53:09.412Z,98.40
2022-10-15T03:55:55.253Z,98.50
2022-10-15T03:58:44.191Z,98.40
2022-10-15T04:01:33.032Z,98.60
2022-10-15T04:04:22.896Z,98.70
2022-10-15T04:07:08.368Z,98.80
2022-10-15T04:09:58.157Z,99.00
2022-10-15T04:12:48.118Z,99.40
2022-10-15T04:15:35.244Z,99.90
2022-10-15T04:18:26.578Z,99.90
2022-10-15T04:21:14.355Z,99.90
2022-10-15T04:24:04.231Z,99.90
2022-10-15T04:26:55.623Z,99.90
2022-10-15T04:29:41.127Z,99.90
2022-10-15T04:32:33.212Z,99.90
2022-10-15T04:35:19.099Z,99.90
2022-10-15T04:38:27.135Z,99.90
2022-10-15T04:41:22.484Z,99.90
2022-10-15T04:44:34.251Z,99.90
2022-10-15T04:47:20.347Z,99.90
2022-10-15T04:50:11.857Z,99.90
2022-10-15T04:53:36.027Z,99.90
2022-10-15T04:56:23.334Z,99.90
2022-10-15T04:59:08.674Z,99.90
2022-10-15T05:02:12.930Z,99.90
2022-10-15T05:04:58.624Z,99.90
2022-10-15T05:07:44.583Z,99.90
2022-10-15T05:10:30.638Z,99.90
2022-10-15T05:13:19.964Z,99.90
2022-10-15T05:16:09.490Z,99.90
2022-10-15T05:19:00.902Z,99.90
2022-10-15T05:24:41.822Z,99.90
2022-10-15T05:27:37.995Z,99.90
2022-10-15T05:30:24.019Z,99.90
2022-10-15T05:33:14.292Z,99.90
2022-10-15T05:36:09.387Z,99.90
2022-10-15T05:38:57.214Z,99.90
2022-10-15T05:41:42.675Z,99.90
2022-10-15T05:44:28.244Z,99.90
2022-10-15T05:47:13.817Z,99.90
2022-10-15T05:49:59.990Z,99.90
2022-10-15T05:52:50.508Z,99.90
2022-10-15T05:55:52.365Z,99.90
2022-10-15T05:58:38.203Z,99.90
2022-10-15T06:01:24.107Z,99.90
2022-10-15T06:04:12.298Z,99.90
2022-10-15T06:06:59.826Z,99.90
2022-10-15T06:09:45.351Z,99.90
2022-10-15T06:12:31.676Z,99.90
2022-10-15T06:15:18.557Z,99.90
2022-10-15T06:18:04.194Z,99.90
2022-10-15T06:20:53.721Z,99.90
2022-10-15T06:23:39.327Z,99.90
2022-10-15T06:26:24.764Z,99.90
2022-10-15T06:29:10.347Z,99.90
2022-10-15T06:31:56.018Z,99.90
2022-10-15T06:34:44.571Z,99.90
2022-10-15T06:37:29.976Z,99.90
2022-10-15T06:40:20.093Z,99.90
2022-10-15T06:43:11.549Z,99.90
2022-10-15T06:45:59.211Z,99.90
2022-10-15T06:48:44.921Z,99.90
2022-10-15T06:51:30.224Z,99.90
2022-10-15T06:54:16.130Z,99.90
2022-10-15T06:57:01.563Z,99.90
2022-10-15T06:59:47.017Z,99.90
2022-10-15T07:02:34.953Z,99.90
2022-10-15T07:05:20.541Z,99.90
2022-10-15T07:08:09.087Z,99.90
2022-10-15T07:13:58.066Z,99.90
2022-10-15T07:16:43.427Z,99.90
2022-10-15T07:19:28.996Z,99.90
2022-10-15T07:22:14.571Z,99.90
2022-10-15T07:24:59.930Z,99.90
2022-10-15T07:27:45.404Z,99.90
2022-10-15T07:30:31.588Z,99.90
2022-10-15T07:33:17.706Z,99.90
2022-10-15T07:36:12.959Z,99.90
2022-10-15T07:38:59.644Z,99.90
2022-10-15T07:41:46.224Z,99.90
2022-10-15T07:44:31.782Z,99.90
2022-10-15T07:47:18.432Z,99.90
2022-10-15T07:50:03.796Z,99.90
2022-10-15T07:52:49.459Z,99.90
2022-10-15T07:55:35.957Z,99.90
2022-10-15T07:58:21.342Z,99.90
2022-10-15T08:01:14.976Z,99.90
2022-10-15T08:04:03.228Z,99.90
2022-10-15T08:06:49.679Z,99.90
2022-10-15T08:09:35.274Z,99.90
2022-10-15T08:12:20.554Z,99.80
2022-10-15T08:15:06.716Z,99.60
2022-10-15T08:17:51.935Z,99.50
2022-10-15T08:20:38.605Z,99.30
2022-10-15T08:23:23.991Z,99.70
2022-10-15T08:26:09.232Z,99.40
2022-10-15T08:28:54.624Z,99.10
2022-10-15T08:31:40.905Z,99.00
2022-10-15T08:34:27.619Z,98.50
2022-10-15T08:39:58.893Z,98.40
2022-10-15T08:42:46.491Z,98.20
2022-10-15T08:45:38.843Z,98.30
2022-10-15T08:48:47.265Z,98.10
2022-10-15T08:51:45.050Z,98.10
2022-10-15T08:54:33.569Z,96.80
2022-10-15T08:57:54.040Z,97.00
2022-10-15T09:01:11.553Z,97.00
2022-10-15T09:04:30.888Z,96.00
2022-10-15T09:07:28.879Z,95.30
2022-10-15T09:10:46.124Z,94.80
2022-10-15T09:13:40.329Z,95.00
2022-10-15T09:16:35.542Z,94.70
2022-10-15T09:19:23.831Z,94.50
2022-10-15T09:22:14.970Z,94.70
2022-10-15T09:25:15.203Z,94.80
2022-10-15T09:28:09.227Z,94.70
2022-10-15T09:30:58.156Z,94.70
2022-10-15T09:33:50.523Z,94.70
2022-10-15T09:36:54.862Z,94.70
2022-10-15T09:39:46.171Z,95.00
2022-10-15T09:42:38.159Z,95.10
2022-10-15T09:45:24.477Z,95.40
2022-10-15T09:48:18.716Z,95.50
2022-10-15T09:51:14.256Z,95.60
2022-10-15T09:54:15.706Z,95.70
2022-10-15T09:57:00.816Z,95.50
2022-10-15T10:00:01.697Z,95.70
2022-10-15T10:03:07.131Z,95.80
2022-10-15T10:06:15.541Z,95.50
2022-10-15T10:09:05.220Z,96.10
2022-10-15T10:11:54.836Z,95.80
2022-10-15T10:14:54.510Z,95.80
2022-10-15T10:20:59.740Z,95.80
2022-10-15T10:23:54.777Z,96.10
2022-10-15T10:26:40.048Z,95.90
2022-10-15T10:29:33.859Z,96.20
2022-10-15T10:32:23.746Z,96.10
2022-10-15T10:35:22.982Z,96.10
2022-10-15T10:38:31.998Z,96.60
2022-10-15T10:41:17.362Z,96.90
2022-10-15T10:44:02.844Z,96.70
2022-10-15T10:47:03.228Z,96.70
2022-10-15T10:49:55.178Z,96.70
2022-10-15T10:52:40.996Z,96.90
2022-10-15T10:55:37.715Z,96.80
2022-10-15T10:58:27.029Z,96.90
2022-10-15T11:01:13.507Z,96.80
2022-10-15T11:03:58.969Z,96.80
2022-10-15T11:07:21.661Z,97.10
2022-10-15T11:10:13.773Z,97.00
2022-10-15T11:13:14.999Z,97.20
2022-10-15T11:16:27.323Z,97.20
2022-10-15T11:19:55.047Z,97.30
2022-10-15T11:22:57.508Z,97.90
2022-10-15T11:25:56.029Z,97.60
2022-10-15T11:28:50.263Z,97.70
2022-10-15T11:32:02.611Z,97.70
2022-10-15T11:35:28.655Z,97.70
2022-10-15T11:38:44.718Z,98.00
2022-10-15T11:42:12.471Z,98.50
2022-10-15T11:45:42.195Z,98.00
2022-10-15T11:49:11.775Z,98.30
2022-10-15T11:51:57.171Z,98.30
2022-10-15T11:54:45.861Z,98.20
2022-10-15T11:57:34.059Z,98.30
2022-10-15T12:00:35.958Z,98.10
2022-10-15T12:03:28.839Z,98.10
2022-10-15T12:06:18.830Z,98.30
2022-10-15T12:09:06.533Z,98.40
2022-10-15T12:12:14.731Z,98.60
2022-10-15T12:15:30.616Z,98.70
2022-10-15T12:18:47.672Z,98.40
2022-10-15T12:21:54.271Z,98.40
2022-10-15T12:24:40.712Z,98.30
2022-10-15T12:27:37.368Z,98.10
2022-10-15T12:30:25.516Z,98.20
2022-10-15T12:34:04.594Z,97.60
2022-10-15T12:37:09.226Z,98.30
2022-10-15T12:40:01.628Z,97.70
2022-10-15T12:42:51.872Z,96.30
2022-10-15T12:45:40.845Z,95.50
2022-10-15T12:48:41.294Z,95.60
2022-10-15T12:51:26.688Z,95.10
2022-10-15T12:54:34.957Z,94.90
2022-10-15T12:57:33.751Z,94.30
2022-10-15T13:00:39.750Z,93.50
2022-10-15T13:03:35.584Z,93.60
2022-10-15T13:06:20.809Z,93.60
2022-10-15T13:09:12.196Z,93.10
2022-10-15T13:12:00.488Z,93.10
2022-10-15T13:14:57.336Z,92.70
2022-10-15T13:17:43.431Z,92.10
2022-10-15T13:20:36.996Z,92.20
2022-10-15T13:23:31.991Z,91.10
2022-10-15T13:26:26.731Z,91.00
2022-10-15T13:29:19.972Z,90.00
2022-10-15T13:32:14.805Z,90.90
2022-10-15T13:35:02.177Z,88.50
2022-10-15T13:37:49.300Z,85.00
2022-10-15T13:40:35.033Z,78.60
2022-10-15T13:43:27.690Z,76.90
2022-10-15T13:46:15.928Z,74.40
2022-10-15T13:49:04.180Z,72.50
2022-10-15T13:51:51.517Z,64.70
2022-10-15T13:54:36.720Z,58.60
2022-10-15T13:57:22.216Z,53.00
2022-10-15T14:00:20.640Z,50.30
2022-10-15T14:03:15.723Z,50.80
2022-10-15T14:06:19.954Z,52.40
2022-10-15T14:09:18.623Z,52.70
2022-10-15T14:12:08.364Z,54.60
2022-10-15T14:14:55.334Z,55.40
2022-10-15T14:17:40.769Z,55.20
2022-10-15T14:20:27.608Z,54.70
2022-10-15T14:23:21.189Z,55.60
2022-10-15T14:26:06.712Z,54.60
2022-10-15T14:28:52.659Z,51.10
2022-10-15T14:31:48.265Z,49.00
2022-10-15T14:34:33.670Z,47.00
2022-10-15T14:37:30.183Z,49.70
2022-10-15T14:40:18.995Z,47.70
2022-10-15T14:43:15.709Z,48.30
2022-10-15T14:46:03.414Z,49.60
2022-10-15T14:48:49.120Z,51.30
2022-10-15T14:51:34.651Z,45.80
2022-10-15T14:54:34.364Z,44.50
2022-10-15T14:57:25.260Z,41.70
2022-10-15T15:00:34.082Z,40.90
2022-10-15T15:03:26.016Z,40.80
2022-10-15T15:06:11.848Z,40.10
2022-10-15T15:08:57.141Z,37.90
2022-10-15T15:11:42.629Z,38.00
2022-10-15T15:14:28.081Z,38.00
2022-10-15T15:17:22.751Z,38.90
2022-10-15T15:20:08.605Z,39.80
2022-10-15T15:22:55.167Z,38.70
2022-10-15T15:25:40.875Z,38.00
2022-10-15T15:28:27.781Z,36.80
2022-10-15T15:31:18.259Z,36.00
2022-10-15T15:34:03.868Z,36.20
2022-10-15T15:36:49.846Z,36.90
2022-10-15T15:39:35.232Z,36.40
2022-10-15T15:42:23.548Z,37.20
2022-10-15T15:45:18.187Z,39.10
2022-10-15T15:48:04.776Z,39.80
2022-10-15T15:50:53.543Z,40.70
2022-10-15T15:53:38.911Z,41.50
2022-10-15T15:56:25.386Z,43.10
2022-10-15T15:59:10.836Z,43.00
2022-10-15T16:01:56.734Z,43.80
2022-10-15T16:04:42.046Z,45.20
2022-10-15T16:07:28.783Z,45.80
2022-10-15T16:10:14.188Z,45.40
2022-10-15T16:12:59.576Z,45.60
2022-10-15T16:15:48.361Z,46.20
2022-10-15T16:18:33.735Z,47.50
2022-10-15T16:21:23.687Z,50.90
2022-10-15T16:24:09.102Z,53.80
2022-10-15T16:26:54.889Z,56.20
2022-10-15T16:29:40.160Z,58.40
2022-10-15T16:32:25.764Z,60.50
2022-10-15T16:35:11.509Z,62.50
2022-10-15T16:37:56.630Z,64.30
2022-10-15T16:40:46.203Z,66.00
2022-10-15T16:43:31.762Z,68.00
2022-10-15T16:46:19.039Z,69.60
2022-10-15T16:49:04.638Z,71.00
2022-10-15T16:51:50.019Z,72.10
2022-10-15T16:54:35.583Z,73.90
2022-10-15T16:57:21.519Z,74.80
2022-10-15T17:00:07.707Z,75.80
2022-10-15T17:02:54.187Z,76.30
2022-10-15T17:05:39.448Z,77.50
2022-10-15T17:08:34.873Z,77.90
2022-10-15T17:11:29.898Z,78.80
2022-10-15T17:14:16.845Z,79.00
2022-10-15T17:17:02.351Z,79.40
2022-10-15T17:19:47.942Z,79.40
2022-10-15T17:22:35.016Z,79.60
2022-10-15T17:25:20.399Z,79.70
2022-10-15T17:28:06.191Z,79.70
2022-10-15T17:30:52.455Z,79.60
2022-10-15T17:33:39.679Z,79.60
2022-10-15T17:36:26.182Z,79.50
2022-10-15T17:39:13.352Z,79.50
2022-10-15T17:41:58.907Z,79.60
2022-10-15T17:44:44.478Z,79.80
2022-10-15T17:47:30.314Z,80.00
2022-10-15T17:50:16.343Z,80.90
2022-10-15T17:53:03.100Z,80.50
2022-10-15T17:55:48.151Z,80.70
2022-10-15T17:58:33.930Z,80.70
2022-10-15T18:01:33.861Z,80.90
2022-10-15T18:04:31.655Z,81.20
2022-10-15T18:07:19.963Z,81.40
2022-10-15T18:10:06.255Z,82.10
2022-10-15T18:12:52.095Z,82.50
2022-10-15T18:15:38.812Z,83.50
2022-10-15T18:18:26.044Z,83.10
2022-10-15T18:21:17.047Z,83.90
2022-10-15T18:24:02.537Z,84.50
2022-10-15T18:26:48.153Z,84.70
2022-10-15T18:29:33.991Z,85.10
2022-10-15T18:32:19.394Z,85.40
2022-10-15T18:35:06.287Z,85.70
2022-10-15T18:37:51.958Z,86.00
2022-10-15T18:40:41.093Z,86.40
2022-10-15T18:43:26.853Z,86.60
2022-10-15T18:46:12.294Z,86.60
2022-10-15T18:49:01.056Z,86.50
2022-10-15T18:51:52.817Z,86.50
2022-10-15T18:54:38.517Z,86.50
2022-10-15T18:57:24.048Z,86.20
2022-10-15T19:00:13.424Z,86.00
2022-10-15T19:02:59.011Z,85.70
2022-10-15T19:05:44.712Z,85.20
2022-10-15T19:08:31.276Z,84.80
2022-10-15T19:11:17.171Z,84.50
2022-10-15T19:14:03.322Z,83.80
2022-10-15T19:16:49.171Z,83.50
2022-10-15T19:19:34.727Z,82.80
2022-10-15T19:22:20.203Z,82.60
2022-10-15T19:25:06.625Z,82.30
2022-10-15T19:27:52.331Z,82.30
2022-10-15T19:30:40.768Z,82.20
2022-10-15T19:33:27.367Z,82.50
2022-10-15T19:36:23.455Z,82.60
2022-10-15T19:39:14.725Z,82.70
2022-10-15T19:42:00.275Z,83.00
2022-10-15T19:44:45.467Z,83.20
2022-10-15T19:47:36.923Z,83.70
2022-10-15T19:50:24.075Z,83.80
2022-10-15T19:53:16.469Z,84.20
2022-10-15T19:56:08.584Z,84.60
2022-10-15T19:58:55.968Z,84.80
2022-10-15T20:01:41.210Z,85.00
2022-10-15T20:04:26.489Z,85.00
2022-10-15T20:07:14.833Z,85.30
2022-10-15T20:10:00.913Z,85.50
2022-10-15T20:12:52.554Z,85.90
2022-10-15T20:15:49.596Z,86.10
2022-10-15T20:18:36.938Z,86.10
2022-10-15T20:21:22.592Z,86.30
2022-10-15T20:24:08.184Z,86.50
2022-10-15T20:26:53.712Z,86.60
2022-10-15T20:29:39.663Z,86.40
2022-10-15T20:32:35.106Z,86.40
2022-10-15T20:35:20.800Z,86.20
2022-10-15T20:38:10.545Z,86.10
2022-10-15T20:40:55.874Z,86.10
2022-10-15T20:43:42.987Z,86.20
2022-10-15T20:46:32.769Z,86.20
2022-10-15T20:49:22.907Z,86.20
2022-10-15T20:52:08.501Z,86.20
2022-10-15T20:54:56.060Z,86.30
2022-10-15T20:57:41.640Z,86.30
2022-10-15T21:00:26.916Z,86.40
2022-10-15T21:03:12.603Z,86.40
2022-10-15T21:05:58.378Z,86.40
2022-10-15T21:08:43.737Z,86.20
2022-10-15T21:11:29.130Z,86.10
2022-10-15T21:14:21.299Z,86.00
2022-10-15T21:17:09.306Z,86.10
2022-10-15T21:19:54.543Z,86.00
2022-10-15T21:22:39.995Z,85.90
2022-10-15T21:25:25.751Z,85.90
2022-10-15T21:28:11.087Z,86.00
2022-10-15T21:30:56.376Z,85.60
2022-10-15T21:33:42.527Z,85.70
2022-10-15T21:36:28.359Z,85.60
2022-10-15T21:39:13.557Z,85.40
2022-10-15T21:41:59.191Z,85.50
2022-10-15T21:44:46.571Z,85.50
2022-10-15T21:47:32.980Z,85.50
2022-10-15T21:50:18.774Z,85.30
2022-10-15T21:53:05.009Z,85.00
2022-10-15T21:55:54.354Z,84.90
2022-10-15T21:58:41.166Z,84.60
2022-10-15T22:01:31.221Z,84.50
2022-10-15T22:04:17.431Z,84.70
2022-10-15T22:07:03.347Z,84.50
2022-10-15T22:09:48.770Z,84.50
2022-10-15T22:12:34.008Z,84.70
2022-10-15T22:15:19.519Z,84.90
2022-10-15T22:18:05.116Z,84.90
2022-10-15T22:20:50.804Z,85.10
2022-10-15T22:23:35.929Z,85.20
2022-10-15T22:26:24.704Z,85.30
2022-10-15T22:29:19.811Z,85.50
2022-10-15T22:32:05.574Z,85.60
2022-10-15T22:34:50.804Z,85.60
2022-10-15T22:37:36.308Z,85.70
2022-10-15T22:40:24.503Z,86.00
2022-10-15T22:43:09.943Z,86.10
2022-10-15T22:45:59.830Z,86.40
2022-10-15T22:48:45.299Z,86.90
2022-10-15T22:51:31.149Z,87.00
2022-10-15T22:54:41.402Z,86.80
2022-10-15T22:57:26.526Z,86.80
2022-10-15T23:00:12.663Z,87.00
2022-10-15T23:02:57.919Z,86.90
2022-10-15T23:05:43.676Z,86.80
2022-10-15T23:08:41.372Z,86.80
2022-10-15T23:11:40.671Z,86.50
2022-10-15T23:14:29.075Z,86.20
2022-10-15T23:17:14.615Z,86.10
2022-10-15T23:19:59.823Z,85.70
2022-10-15T23:22:45.328Z,85.30
2022-10-15T23:25:35.955Z,85.20
2022-10-15T23:28:21.549Z,85.10
2022-10-15T23:31:07.215Z,85.00
2022-10-15T23:33:54.005Z,84.70
2022-10-15T23:36:40.378Z,85.30
2022-10-15T23:39:27.102Z,84.30
2022-10-15T23:42:12.163Z,84.20
2022-10-15T23:44:58.868Z,83.90
2022-10-15T23:47:44.413Z,83.80
2022-10-15T23:50:36.593Z,84.00
2022-10-15T23:53:22.072Z,83.70
2022-10-15T23:56:07.569Z,83.60
2022-10-15T23:58:55.495Z,83.50
